Airfield :
LOGIN :

Register | Disclaimer

   EN    FR    IT 

 










Legend :    VFR   Marginal VFR   IFR   Intensive IFR   Very Intensive IFR
Visi :
Ceiling :
>= 8 km
>= 3000ft
5 to 8 km
1000 to 3000 ft
1500m to 5 km
500 to 1000 ft
800 to 1500m
200 to 500 ft
< 800m
< 200 ft
Symbols :   Thunderstorms  Fog  Heavy snow  Heavy precipitations  Wind > 20 kt
SIGMETs :     Misc.  Thunderstorms  Icing  Turbulence  Mountain Waves  Volcanic Ashes







- Airport Elevation : 46 ft
- IATA code : SNN


EINN - Shannon

CURRENT METAR :
  • 211430Z 12017KT 9999 FEW014 SCT018 BKN250 19/15 Q0999 NOSIG

EXPIRED METARs :
  • 211400Z 12018KT 9999 FEW015 BKN018 19/15 Q1000 NOSIG
  • 211330Z 13017KT 9999 SCT014 BKN019 18/15 Q1000 NOSIG
  • 211300Z 12018KT 9999 BKN017 18/15 Q1000 NOSIG
  • 211230Z 13019KT 9999 BKN017 BKN025 18/15 Q1000 NOSIG
  • 211200Z 13018G28KT 9999 SCT016 BKN025 18/14 Q1000 NOSIG

TAF TAF EINN
Valid from the 21 at 12:00 until the 22 at 12:00 UTC


211100Z 2112/2212 13017KT 9999 FEW018 BKN022
TEMPO 2112/2119 14018G28KT
TEMPO 2112/2118 -SHRA BKN010 SCT018CB
BECMG 2119/2121 14010KT
TEMPO 2119/2124 5000 RA BKN007 SCT018CB
BECMG 2200/2202 14005KT
TEMPO 2202/2206 4000 -DZ BR BKN006
BECMG 2204/2206 21007KT
BECMG 2209/2212 28010KT
TEMPO 2210/2212 -SHRA SCT012 SCT018CB
No reported NOTAMs for that airfield.



MET'MAP, your aeronautical weather chart ! - Copyright ORBIFLY December 2007 - Disclaimer

ORBIFLY MET'MAP TEAM :

Programming & Development : Alexandra Zaïnal
Concept & Development : Baudouin d'Aumeries
Co-Development & Prog : Marc-Olivier Méhu
Technical & hardware support : Manuel Goepfert

Contact : metmap@orbifly.com




SOURCES & CREDITS :

   NOAA